Time;durP1;ratioP1;P1;durP2;ratioP2;P2;SDS_P1;SDS_P2;PMS_P1;PMS_P2;Temp;Humidity;BMP_temperature;BMP_pressure;BME280_temperature;BME280_humidity;BME280_pressure;Samples;Min_cycle;Max_cycle;Signal;HPM_P1;HPM_P2
2023/02/25 00:02:12;;;;;;;29.70;5.53;;;4.10;99.90;;;;;;5014825;28;20437;-72
2023/02/25 00:04:40;;;;;;;29.40;4.80;;;4.00;99.90;;;;;;4994352;28;20053;-70
2023/02/25 00:07:07;;;;;;;23.30;4.75;;;4.10;99.90;;;;;;5026998;28;20362;-71
2023/02/25 00:09:33;;;;;;;27.05;4.85;;;4.00;99.90;;;;;;5028362;28;20174;-71
2023/02/25 00:11:58;;;;;;;31.23;5.47;;;4.00;99.90;;;;;;5019025;28;20136;-71
2023/02/25 00:14:24;;;;;;;17.92;4.85;;;4.00;99.90;;;;;;5022132;28;20377;-71
2023/02/25 00:16:50;;;;;;;25.38;6.18;;;4.00;99.90;;;;;;5021704;28;20155;-71
2023/02/25 00:19:16;;;;;;;23.65;5.38;;;4.00;99.90;;;;;;5003660;28;20048;-71
2023/02/25 00:21:41;;;;;;;25.63;5.03;;;4.00;99.90;;;;;;5005549;28;20458;-71
2023/02/25 00:24:07;;;;;;;21.02;6.63;;;4.00;99.90;;;;;;5029011;28;20533;-71
2023/02/25 00:26:33;;;;;;;20.92;4.50;;;3.90;99.90;;;;;;5018893;28;20080;-71
2023/02/25 00:28:58;;;;;;;18.83;4.43;;;3.90;99.90;;;;;;4984731;28;20121;-70
2023/02/25 00:31:24;;;;;;;29.40;5.22;;;3.90;99.90;;;;;;5011338;28;20049;-71
2023/02/25 00:33:50;;;;;;;19.58;3.90;;;4.00;99.90;;;;;;5005282;28;20056;-71
2023/02/25 00:36:27;;;;;;;20.83;4.45;;;4.00;99.90;;;;;;5016332;28;20057;-74
2023/02/25 00:38:54;;;;;;;17.08;3.30;;;3.90;99.90;;;;;;5008519;28;20366;-75
2023/02/25 00:41:25;;;;;;;20.52;3.70;;;3.90;99.90;;;;;;5010730;28;20052;-74
2023/02/25 00:43:55;;;;;;;16.95;4.07;;;3.90;99.90;;;;;;5002002;28;20045;-75
2023/02/25 00:46:21;;;;;;;18.90;3.30;;;3.90;99.90;;;;;;5000144;28;20060;-74
2023/02/25 00:48:47;;;;;;;20.52;3.88;;;3.90;99.90;;;;;;5005528;28;20045;-73
2023/02/25 00:51:15;;;;;;;13.85;3.17;;;4.00;99.90;;;;;;5020781;28;20080;-74
2023/02/25 00:53:41;;;;;;;19.33;3.47;;;3.90;99.90;;;;;;5018123;28;20539;-72
2023/02/25 00:56:08;;;;;;;20.77;3.85;;;4.00;99.90;;;;;;5021323;28;20466;-71
2023/02/25 00:58:37;;;;;;;19.38;3.15;;;4.00;99.90;;;;;;5010230;28;20057;-71
2023/02/25 01:01:14;;;;;;;21.45;3.85;;;4.00;99.90;;;;;;5025271;28;20045;-70
2023/02/25 01:03:39;;;;;;;13.05;2.92;;;4.00;99.90;;;;;;4994070;28;20049;-70
2023/02/25 01:06:07;;;;;;;20.80;3.55;;;4.00;99.90;;;;;;5025204;28;20049;-70
2023/02/25 01:08:33;;;;;;;18.20;4.13;;;4.00;99.90;;;;;;5021786;28;20512;-72
2023/02/25 01:10:58;;;;;;;18.30;3.10;;;4.00;99.90;;;;;;5026907;28;20132;-72
2023/02/25 01:13:24;;;;;;;20.85;3.17;;;4.00;99.90;;;;;;4990548;28;20529;-72
2023/02/25 01:15:50;;;;;;;19.13;2.83;;;4.00;99.90;;;;;;5046652;28;20173;-71
2023/02/25 01:18:19;;;;;;;21.95;3.35;;;4.00;99.90;;;;;;5026372;28;20045;-71
2023/02/25 01:20:45;;;;;;;18.75;3.22;;;4.00;99.90;;;;;;5015502;28;20041;-70
2023/02/25 01:23:11;;;;;;;16.13;2.95;;;4.00;99.90;;;;;;5014885;28;20060;-70
2023/02/25 01:25:39;;;;;;;19.40;4.07;;;4.00;99.90;;;;;;5004416;28;20050;-70
2023/02/25 01:28:05;;;;;;;21.45;3.88;;;4.00;99.90;;;;;;5011427;28;20124;-70
2023/02/25 01:30:32;;;;;;;25.98;3.83;;;4.00;99.90;;;;;;4992540;28;20071;-71
2023/02/25 01:32:57;;;;;;;20.75;3.80;;;4.00;99.90;;;;;;5007033;28;20107;-70
2023/02/25 01:35:23;;;;;;;21.63;4.03;;;4.00;99.90;;;;;;5010620;28;20054;-70
2023/02/25 01:37:49;;;;;;;17.92;4.15;;;4.10;99.90;;;;;;5025307;28;20054;-70
2023/02/25 01:40:15;;;;;;;10.30;2.10;;;4.10;99.90;;;;;;5025060;28;20076;-70
2023/02/25 01:42:43;;;;;;;11.50;1.90;;;4.10;99.90;;;;;;5029651;28;20433;-70
2023/02/25 01:45:20;;;;;;;11.75;2.20;;;4.10;99.90;;;;;;5024307;28;20045;-70
2023/02/25 01:47:52;;;;;;;15.13;3.15;;;4.10;99.90;;;;;;5017959;28;20065;-70
2023/02/25 01:50:23;;;;;;;5.72;1.50;;;4.10;99.90;;;;;;5001405;28;20049;-70
2023/02/25 01:52:48;;;;;;;6.07;1.15;;;4.00;99.90;;;;;;5024265;28;20116;-71
2023/02/25 01:55:14;;;;;;;7.78;1.38;;;3.90;99.90;;;;;;5010780;28;20133;-72
2023/02/25 01:57:40;;;;;;;3.70;1.08;;;3.90;99.90;;;;;;5006266;28;20057;-72
2023/02/25 02:00:10;;;;;;;3.35;1.08;;;3.90;99.90;;;;;;5014040;28;20045;-70
2023/02/25 02:02:36;;;;;;;5.05;0.90;;;3.90;99.90;;;;;;5013238;28;20041;-70
2023/02/25 02:05:02;;;;;;;5.78;0.95;;;3.90;99.90;;;;;;5011297;28;20044;-72
2023/02/25 02:07:28;;;;;;;7.20;0.90;;;3.80;99.90;;;;;;5007358;28;20442;-72
2023/02/25 02:09:57;;;;;;;3.58;0.70;;;3.80;99.90;;;;;;5028220;28;20045;-70
2023/02/25 02:12:34;;;;;;;4.63;1.00;;;3.70;99.90;;;;;;5010212;28;20048;-71
2023/02/25 02:15:01;;;;;;;7.07;1.40;;;3.70;99.90;;;;;;5019752;28;20514;-71
2023/02/25 02:17:58;;;;;;;12.55;2.03;;;3.70;99.90;;;;;;5024223;28;20057;-70
2023/02/25 02:20:39;;;;;;;7.68;1.00;;;3.80;99.90;;;;;;5007435;28;20052;-71
2023/02/25 02:23:32;;;;;;;5.00;0.77;;;3.70;99.90;;;;;;5026107;28;20485;-71
2023/02/25 02:26:25;;;;;;;3.58;0.73;;;3.80;99.90;;;;;;5026855;28;20044;-71
2023/02/25 02:29:29;;;;;;;2.95;1.00;;;3.80;99.90;;;;;;5022494;28;20128;-71
2023/02/25 02:32:22;;;;;;;1.67;0.68;;;3.80;99.90;;;;;;5024059;28;20099;-71
2023/02/25 02:34:56;;;;;;;3.67;0.80;;;3.80;99.90;;;;;;5026566;28;20136;-71
2023/02/25 02:37:52;;;;;;;2.55;0.77;;;3.80;99.90;;;;;;5007025;28;20050;-72
2023/02/25 02:40:35;;;;;;;2.35;0.65;;;3.90;99.90;;;;;;5017858;28;20542;-72
2023/02/25 02:43:22;;;;;;;2.17;0.70;;;3.80;99.90;;;;;;5014766;28;20367;-72
2023/02/25 02:46:04;;;;;;;2.10;0.80;;;3.80;99.90;;;;;;5012713;28;20115;-70
2023/02/25 02:49:04;;;;;;;3.00;0.88;;;3.80;99.90;;;;;;5018200;28;20617;-71
2023/02/25 02:51:38;;;;;;;2.80;1.10;;;3.80;99.90;;;;;;5008210;28;20543;-70
2023/02/25 02:54:05;;;;;;;6.15;1.08;;;3.80;99.90;;;;;;4997426;28;20042;-71
2023/02/25 02:56:32;;;;;;;12.55;1.20;;;3.80;99.90;;;;;;5007605;28;20471;-71
2023/02/25 02:59:09;;;;;;;4.82;1.27;;;3.80;99.90;;;;;;5058971;28;20045;-71
2023/02/25 03:01:43;;;;;;;5.72;1.50;;;3.80;99.90;;;;;;5027871;28;20042;-71
2023/02/25 03:04:12;;;;;;;5.22;1.00;;;3.80;99.90;;;;;;5016511;28;20466;-71
2023/02/25 03:06:40;;;;;;;5.55;1.42;;;3.80;99.90;;;;;;4997658;28;20051;-71
2023/02/25 03:09:11;;;;;;;3.80;0.90;;;3.80;99.90;;;;;;5006360;28;20132;-71
2023/02/25 03:11:37;;;;;;;5.38;1.00;;;3.80;99.90;;;;;;4994634;28;20089;-71
2023/02/25 03:14:03;;;;;;;3.92;1.13;;;3.70;99.90;;;;;;5004578;28;20077;-71
2023/02/25 03:16:49;;;;;;;4.72;1.00;;;3.70;99.90;;;;;;4999616;28;20605;-71
2023/02/25 03:19:18;;;;;;;8.30;1.27;;;3.70;99.90;;;;;;5006887;28;20120;-71
2023/02/25 03:22:03;;;;;;;6.15;1.25;;;3.70;99.90;;;;;;5026158;28;20042;-71
2023/02/25 03:24:33;;;;;;;6.47;1.30;;;3.70;99.90;;;;;;5025903;28;20513;-71
2023/02/25 03:27:00;;;;;;;8.27;1.38;;;3.60;99.90;;;;;;5032131;28;20073;-71
2023/02/25 03:29:27;;;;;;;8.35;1.35;;;3.50;99.90;;;;;;5029091;28;20457;-71
2023/02/25 03:32:02;;;;;;;9.25;1.95;;;3.50;99.90;;;;;;5003958;28;20041;-71
2023/02/25 03:34:35;;;;;;;7.57;1.35;;;3.50;99.90;;;;;;4997037;28;20140;-71
2023/02/25 03:37:04;;;;;;;12.90;1.85;;;3.40;99.90;;;;;;5013115;28;20065;-71
2023/02/25 03:39:30;;;;;;;;;;;3.40;99.90;;;;;;5000096;28;20458;-71
2023/02/25 03:41:57;;;;;;;7.88;1.48;;;3.40;99.90;;;;;;5016404;28;19960;-71
2023/02/25 03:44:26;;;;;;;9.45;1.30;;;3.40;99.90;;;;;;5016103;28;20378;-71
2023/02/25 03:46:52;;;;;;;;;;;3.40;99.90;;;;;;5006377;28;20046;-71
2023/02/25 03:49:33;;;;;;;4.88;1.23;;;3.40;99.90;;;;;;5015430;28;19913;-71
2023/02/25 03:51:59;;;;;;;5.50;1.13;;;3.40;99.90;;;;;;4995009;28;20049;-70
2023/02/25 03:54:26;;;;;;;10.80;1.45;;;3.40;99.90;;;;;;5020375;28;20066;-71
2023/02/25 03:56:52;;;;;;;8.07;1.50;;;3.40;99.90;;;;;;5018853;28;20056;-70
2023/02/25 03:59:18;;;;;;;6.15;1.30;;;3.40;99.90;;;;;;4999798;28;20045;-70
2023/02/25 04:01:45;;;;;;;8.80;1.35;;;3.40;99.90;;;;;;5026915;28;20430;-70
2023/02/25 04:04:10;;;;;;;6.00;1.20;;;3.50;99.90;;;;;;5005814;28;20049;-71
2023/02/25 04:06:36;;;;;;;6.10;0.90;;;3.50;99.90;;;;;;4976738;28;20064;-71
2023/02/25 04:09:03;;;;;;;5.22;1.27;;;3.50;99.90;;;;;;5022066;28;20059;-71
2023/02/25 04:11:29;;;;;;;5.32;1.15;;;3.50;99.90;;;;;;5009139;28;20214;-71
2023/02/25 04:13:54;;;;;;;4.72;1.20;;;3.40;99.90;;;;;;4998729;28;20049;-70
2023/02/25 04:16:20;;;;;;;4.72;1.33;;;3.50;99.90;;;;;;5018700;28;20057;-70
2023/02/25 04:18:46;;;;;;;3.22;1.20;;;3.50;99.90;;;;;;5006479;28;20414;-70
2023/02/25 04:21:31;;;;;;;4.05;1.50;;;3.50;99.90;;;;;;5006944;28;20042;-70
2023/02/25 04:23:57;;;;;;;5.97;1.20;;;3.50;99.90;;;;;;5015932;28;20053;-71
2023/02/25 04:26:23;;;;;;;4.22;1.08;;;3.50;99.90;;;;;;4988610;28;20049;-70
2023/02/25 04:28:49;;;;;;;3.22;1.10;;;3.50;99.90;;;;;;5015243;28;20046;-70
2023/02/25 04:31:15;;;;;;;3.95;1.38;;;3.40;99.90;;;;;;5026402;28;20475;-71
2023/02/25 04:33:40;;;;;;;2.70;1.10;;;3.40;99.90;;;;;;5028135;28;20488;-70
2023/02/25 04:36:27;;;;;;;2.08;1.00;;;3.40;99.90;;;;;;5005127;28;20046;-71
2023/02/25 04:38:53;;;;;;;6.57;1.38;;;3.50;99.90;;;;;;5006032;28;20038;-71
2023/02/25 04:41:19;;;;;;;6.25;1.23;;;3.50;99.90;;;;;;5023052;28;20042;-71
2023/02/25 04:43:45;;;;;;;3.33;1.30;;;3.40;99.90;;;;;;5028076;28;20038;-71
2023/02/25 04:46:11;;;;;;;4.00;1.30;;;3.40;99.90;;;;;;5014046;28;20365;-71
2023/02/25 04:48:38;;;;;;;3.45;1.05;;;3.40;99.90;;;;;;5005155;28;20045;-71
2023/02/25 04:51:04;;;;;;;3.17;1.25;;;3.40;99.90;;;;;;5013739;28;20056;-71
2023/02/25 04:53:30;;;;;;;3.95;1.15;;;3.40;99.90;;;;;;5012200;28;20495;-71
2023/02/25 04:55:56;;;;;;;4.65;1.50;;;3.40;99.90;;;;;;5006905;28;20046;-70
2023/02/25 04:58:22;;;;;;;13.25;2.85;;;3.40;99.90;;;;;;5016317;28;20368;-70
2023/02/25 05:00:48;;;;;;;4.47;1.30;;;3.40;99.90;;;;;;5021177;28;20470;-71
2023/02/25 05:03:14;;;;;;;4.13;1.60;;;3.30;99.90;;;;;;5009033;28;20050;-71
2023/02/25 05:05:39;;;;;;;2.50;1.30;;;3.20;99.90;;;;;;5027870;28;20415;-71
2023/02/25 05:08:05;;;;;;;6.65;1.35;;;3.30;99.90;;;;;;5033800;28;20518;-71
2023/02/25 05:10:31;;;;;;;3.20;1.40;;;3.30;99.90;;;;;;5020353;28;20100;-70
2023/02/25 05:12:57;;;;;;;3.35;1.30;;;3.30;99.90;;;;;;5015109;28;20041;-71
2023/02/25 05:15:24;;;;;;;5.28;1.75;;;3.20;99.90;;;;;;4993953;28;20104;-71
2023/02/25 05:17:50;;;;;;;3.25;1.48;;;3.20;99.90;;;;;;5022490;28;20045;-71
2023/02/25 05:20:16;;;;;;;4.57;1.67;;;3.20;99.90;;;;;;5000974;28;20053;-71
2023/02/25 05:22:42;;;;;;;4.10;1.60;;;3.20;99.90;;;;;;5035001;28;20107;-71
2023/02/25 05:25:08;;;;;;;4.75;1.70;;;3.20;99.90;;;;;;5002428;28;20050;-70
2023/02/25 05:27:34;;;;;;;3.88;1.35;;;3.20;99.90;;;;;;5008748;28;20053;-71
2023/02/25 05:30:00;;;;;;;4.35;1.67;;;3.10;99.90;;;;;;4995229;28;20060;-71
2023/02/25 05:32:26;;;;;;;6.03;1.70;;;3.20;99.90;;;;;;5020824;28;20382;-70
2023/02/25 05:34:52;;;;;;;3.22;1.30;;;3.10;99.90;;;;;;5015005;28;20060;-71
2023/02/25 05:37:17;;;;;;;3.58;1.33;;;3.20;99.90;;;;;;5003481;28;20058;-71
2023/02/25 05:39:43;;;;;;;4.00;1.27;;;3.20;99.90;;;;;;5010783;28;20045;-70
2023/02/25 05:42:10;;;;;;;3.95;1.40;;;3.10;99.90;;;;;;5003229;28;20082;-71
2023/02/25 05:44:36;;;;;;;4.22;1.55;;;3.20;99.90;;;;;;5024440;28;20057;-71
2023/02/25 05:47:01;;;;;;;4.55;1.30;;;3.20;99.90;;;;;;5030267;28;20045;-71
2023/02/25 05:49:28;;;;;;;3.80;1.27;;;3.20;99.90;;;;;;5008561;28;20045;-71
2023/02/25 05:51:54;;;;;;;4.20;1.30;;;3.20;99.90;;;;;;5007602;28;20060;-70
2023/02/25 05:54:19;;;;;;;3.55;1.30;;;3.20;99.90;;;;;;5000222;28;20050;-70
2023/02/25 05:56:45;;;;;;;5.20;1.35;;;3.20;99.90;;;;;;4988024;28;20640;-70
2023/02/25 05:59:11;;;;;;;4.70;1.50;;;3.10;99.90;;;;;;4991408;28;20057;-70
2023/02/25 06:01:37;;;;;;;5.47;1.20;;;3.10;99.90;;;;;;5056396;28;20060;-71
2023/02/25 06:04:02;;;;;;;4.93;1.58;;;3.10;99.90;;;;;;5031154;28;20046;-70
2023/02/25 06:06:29;;;;;;;6.45;1.60;;;3.00;99.90;;;;;;5023873;28;20080;-70
2023/02/25 06:08:55;;;;;;;7.20;1.88;;;3.00;99.90;;;;;;5007185;28;20056;-70
2023/02/25 06:11:23;;;;;;;6.40;1.50;;;3.00;99.90;;;;;;4997990;28;20045;-71
2023/02/25 06:13:50;;;;;;;4.22;1.70;;;2.90;99.90;;;;;;5022025;28;20124;-71
2023/02/25 06:16:16;;;;;;;3.90;1.70;;;3.00;99.90;;;;;;5023372;28;20045;-70
2023/02/25 06:18:41;;;;;;;6.22;2.00;;;3.00;99.90;;;;;;4998155;28;20041;-70
2023/02/25 06:21:09;;;;;;;3.40;1.63;;;2.90;99.90;;;;;;5003356;28;20104;-71
2023/02/25 06:23:35;;;;;;;4.88;2.03;;;3.00;99.90;;;;;;5005162;28;20426;-72
2023/02/25 06:26:01;;;;;;;8.88;2.30;;;2.90;99.90;;;;;;5013410;28;20566;-71
2023/02/25 06:28:27;;;;;;;8.10;2.60;;;2.90;99.90;;;;;;5019903;28;20046;-70
2023/02/25 06:30:53;;;;;;;6.57;2.33;;;2.90;99.90;;;;;;5025852;28;20076;-70
2023/02/25 06:33:18;;;;;;;9.02;2.88;;;2.90;99.90;;;;;;5046648;28;20052;-70
2023/02/25 06:35:44;;;;;;;4.75;2.33;;;2.90;99.90;;;;;;5020149;28;20529;-70
2023/02/25 06:38:10;;;;;;;5.68;2.10;;;2.80;99.90;;;;;;5004616;28;20562;-70
2023/02/25 06:40:37;;;;;;;4.20;2.05;;;2.80;99.90;;;;;;5019062;28;20362;-70
2023/02/25 06:43:02;;;;;;;4.25;2.33;;;2.80;99.90;;;;;;5036765;28;20038;-71
2023/02/25 06:45:28;;;;;;;5.53;2.25;;;2.70;99.90;;;;;;4995792;28;20048;-72
2023/02/25 06:47:54;;;;;;;6.43;2.30;;;2.70;99.90;;;;;;4991799;28;20565;-71
2023/02/25 06:50:20;;;;;;;5.38;2.10;;;2.70;99.90;;;;;;4988583;28;20042;-71
2023/02/25 06:52:46;;;;;;;6.53;2.10;;;2.70;99.90;;;;;;5017364;28;20111;-72
2023/02/25 06:55:11;;;;;;;7.03;2.35;;;2.70;99.90;;;;;;5009270;28;20054;-70
2023/02/25 06:57:37;;;;;;;10.02;2.08;;;2.70;99.90;;;;;;5029769;28;20051;-71
2023/02/25 07:00:04;;;;;;;5.28;1.90;;;2.70;99.90;;;;;;4992246;28;20045;-72
2023/02/25 07:02:30;;;;;;;5.18;1.85;;;2.70;99.90;;;;;;5026450;28;20045;-71
2023/02/25 07:04:56;;;;;;;5.50;1.75;;;2.70;99.90;;;;;;5002894;28;20034;-72
2023/02/25 07:07:22;;;;;;;5.13;1.95;;;2.70;99.90;;;;;;5032988;28;20050;-72
2023/02/25 07:09:47;;;;;;;6.15;1.88;;;2.70;99.90;;;;;;5011910;28;20426;-71
2023/02/25 07:12:13;;;;;;;4.47;1.83;;;2.80;99.90;;;;;;4999450;28;20046;-71
2023/02/25 07:14:39;;;;;;;5.20;1.80;;;2.70;99.90;;;;;;5012463;28;20373;-70
2023/02/25 07:17:05;;;;;;;5.32;1.67;;;2.80;99.90;;;;;;5028632;28;20072;-71
2023/02/25 07:19:30;;;;;;;4.90;2.08;;;2.80;99.90;;;;;;4979424;28;20132;-70
2023/02/25 07:21:56;;;;;;;4.90;1.88;;;2.80;99.90;;;;;;5005338;28;20052;-71
2023/02/25 07:24:22;;;;;;;6.78;1.50;;;2.80;99.90;;;;;;4999850;28;20042;-71
2023/02/25 07:26:48;;;;;;;5.80;1.80;;;2.80;99.90;;;;;;5004440;28;20107;-70
2023/02/25 07:29:14;;;;;;;5.03;1.63;;;2.80;99.90;;;;;;5016124;28;20378;-70
2023/02/25 07:31:40;;;;;;;5.88;1.88;;;2.80;99.90;;;;;;5009478;28;20077;-70
2023/02/25 07:34:05;;;;;;;7.22;2.10;;;2.80;99.90;;;;;;5022860;28;20466;-70
2023/02/25 07:36:32;;;;;;;5.18;1.70;;;2.80;99.90;;;;;;5003459;28;20056;-70
2023/02/25 07:39:03;;;;;;;4.90;1.60;;;2.70;99.90;;;;;;5007884;28;20439;-72
2023/02/25 07:41:28;;;;;;;4.20;1.70;;;2.80;99.90;;;;;;5022574;28;20402;-69
2023/02/25 07:43:54;;;;;;;4.03;1.67;;;2.60;99.90;;;;;;5012583;28;20037;-69
2023/02/25 07:46:21;;;;;;;5.15;1.60;;;2.70;99.90;;;;;;5028834;28;20080;-69
2023/02/25 07:48:47;;;;;;;4.85;1.70;;;2.70;99.90;;;;;;5026730;28;20114;-72
2023/02/25 07:51:17;;;;;;;3.78;1.50;;;2.60;99.90;;;;;;5016378;28;20125;-71
2023/02/25 07:53:43;;;;;;;5.07;1.52;;;2.60;99.90;;;;;;5011489;28;20049;-72
2023/02/25 07:56:09;;;;;;;3.20;1.42;;;2.70;99.90;;;;;;5010240;28;20046;-70
2023/02/25 07:58:35;;;;;;;5.35;1.40;;;2.70;99.90;;;;;;5018715;28;20052;-71
2023/02/25 08:01:02;;;;;;;5.28;1.45;;;2.70;99.90;;;;;;5005275;28;20136;-71
2023/02/25 08:03:28;;;;;;;5.32;1.33;;;2.80;99.90;;;;;;5022760;28;20098;-71
2023/02/25 08:05:54;;;;;;;3.38;1.20;;;2.80;99.90;;;;;;5015637;28;20104;-71
2023/02/25 08:08:20;;;;;;;5.50;1.30;;;2.80;99.90;;;;;;5045164;28;20053;-71
2023/02/25 08:10:46;;;;;;;7.68;1.63;;;2.80;99.90;;;;;;5021701;28;20198;-71
2023/02/25 08:13:13;;;;;;;2.67;1.17;;;2.80;99.90;;;;;;5023833;28;20041;-72
2023/02/25 08:15:42;;;;;;;4.35;1.38;;;2.80;99.90;;;;;;5027679;28;20304;-72
2023/02/25 08:18:08;;;;;;;4.32;1.13;;;2.80;99.90;;;;;;4995315;28;20052;-72
2023/02/25 08:20:34;;;;;;;5.55;1.23;;;2.80;99.90;;;;;;4990817;28;20046;-72
2023/02/25 08:23:00;;;;;;;4.60;1.38;;;2.80;99.90;;;;;;4997042;28;20406;-72
2023/02/25 08:25:26;;;;;;;6.30;1.20;;;2.90;99.90;;;;;;5025452;28;20041;-72
2023/02/25 08:27:52;;;;;;;2.85;1.15;;;2.80;99.90;;;;;;5026121;28;20049;-73
2023/02/25 08:30:19;;;;;;;2.05;0.90;;;2.90;99.90;;;;;;5021458;28;20053;-72
2023/02/25 08:32:46;;;;;;;1.83;0.93;;;3.00;99.90;;;;;;5008122;28;20049;-72
2023/02/25 08:35:11;;;;;;;2.72;0.98;;;2.90;99.90;;;;;;5020818;28;20046;-72
2023/02/25 08:37:37;;;;;;;3.47;1.20;;;2.90;99.90;;;;;;5015326;28;20062;-72
2023/02/25 08:40:08;;;;;;;2.97;1.60;;;3.00;99.90;;;;;;4998767;28;20073;-72
2023/02/25 08:42:34;;;;;;;2.72;1.08;;;3.10;99.90;;;;;;5006687;28;20104;-72
2023/02/25 08:44:59;;;;;;;2.90;0.90;;;3.00;99.90;;;;;;5016185;28;20042;-73
2023/02/25 08:47:25;;;;;;;4.22;1.27;;;3.10;99.90;;;;;;4998327;28;20042;-73
2023/02/25 08:49:51;;;;;;;2.58;1.10;;;3.00;99.90;;;;;;4992549;28;20414;-71
2023/02/25 08:52:17;;;;;;;2.20;1.08;;;3.00;99.90;;;;;;4996179;28;20414;-72
2023/02/25 08:54:42;;;;;;;4.93;1.40;;;3.00;99.90;;;;;;5003989;28;20049;-72
2023/02/25 08:57:08;;;;;;;1.42;0.73;;;3.00;99.90;;;;;;5004990;28;20470;-71
2023/02/25 08:59:34;;;;;;;2.83;0.93;;;3.00;99.90;;;;;;5021078;28;20048;-71
2023/02/25 09:02:05;;;;;;;2.92;1.02;;;3.10;99.90;;;;;;5020500;28;20053;-71
2023/02/25 09:04:31;;;;;;;4.97;1.13;;;3.10;99.90;;;;;;4990446;28;20606;-71
2023/02/25 09:06:57;;;;;;;4.15;1.10;;;3.10;99.90;;;;;;5011767;28;20462;-71
2023/02/25 09:09:23;;;;;;;5.40;1.30;;;3.10;99.90;;;;;;5033422;28;20489;-71
2023/02/25 09:11:49;;;;;;;4.93;1.20;;;3.00;99.90;;;;;;5016630;28;20057;-71
2023/02/25 09:14:15;;;;;;;3.60;1.00;;;3.00;99.90;;;;;;4991926;28;20046;-71
2023/02/25 09:16:41;;;;;;;4.78;1.10;;;3.00;99.90;;;;;;5026086;28;20059;-71
2023/02/25 09:19:06;;;;;;;7.10;1.38;;;3.20;99.90;;;;;;4995896;28;20069;-71
2023/02/25 09:21:32;;;;;;;3.05;1.02;;;3.20;99.90;;;;;;4998181;28;20049;-71
2023/02/25 09:23:58;;;;;;;1.58;0.85;;;3.20;99.90;;;;;;4997295;28;20108;-71
2023/02/25 09:26:24;;;;;;;2.92;1.10;;;3.20;99.90;;;;;;5023820;28;20422;-71
2023/02/25 09:28:50;;;;;;;4.75;1.30;;;3.10;99.90;;;;;;5014042;28;20132;-71
2023/02/25 09:31:16;;;;;;;6.07;1.85;;;3.10;99.90;;;;;;4998439;28;20576;-70
2023/02/25 09:33:41;;;;;;;3.42;1.00;;;3.10;99.90;;;;;;5000857;28;20062;-71
2023/02/25 09:36:09;;;;;;;3.08;1.20;;;3.20;99.90;;;;;;5026597;28;20050;-71
2023/02/25 09:38:35;;;;;;;5.07;1.42;;;3.20;99.90;;;;;;5027802;28;20387;-71
2023/02/25 09:41:01;;;;;;;2.95;0.77;;;3.10;99.90;;;;;;5007027;28;20045;-70
2023/02/25 09:43:28;;;;;;;2.80;1.08;;;3.00;99.90;;;;;;5025349;28;20414;-71
2023/02/25 09:45:58;;;;;;;1.73;0.82;;;2.90;99.90;;;;;;5029211;28;20463;-71
2023/02/25 09:48:26;;;;;;;6.18;1.38;;;3.10;99.90;;;;;;5010510;28;20111;-72
2023/02/25 09:50:55;;;;;;;3.53;1.30;;;3.00;99.90;;;;;;5029244;28;20506;-71
2023/02/25 09:53:39;;;;;;;6.10;1.85;;;2.90;99.90;;;;;;5019720;28;20052;-71
2023/02/25 09:56:05;;;;;;;3.17;1.00;;;3.00;99.90;;;;;;4993516;28;20045;-71
2023/02/25 09:58:34;;;;;;;5.30;1.10;;;2.90;99.90;;;;;;5007902;28;20068;-71
2023/02/25 10:01:10;;;;;;;3.15;1.38;;;2.90;99.90;;;;;;5008155;28;20091;-71
2023/02/25 10:03:53;;;;;;;2.55;1.20;;;2.90;99.90;;;;;;5018867;28;20060;-70
2023/02/25 10:06:22;;;;;;;6.07;1.30;;;2.80;99.90;;;;;;5024099;28;20057;-71
2023/02/25 10:09:32;;;;;;;1.48;0.90;;;2.80;99.90;;;;;;5024742;28;20045;-71
2023/02/25 10:12:33;;;;;;;2.90;1.27;;;2.50;99.90;;;;;;5036259;28;20139;-71
2023/02/25 10:15:18;;;;;;;2.22;1.20;;;2.50;99.90;;;;;;5030662;28;20396;-71
2023/02/25 10:17:46;;;;;;;3.45;1.40;;;2.60;99.90;;;;;;5023747;28;20064;-71
2023/02/25 10:20:22;;;;;;;4.05;1.17;;;2.60;99.90;;;;;;5020965;28;20088;-71
2023/02/25 10:23:04;;;;;;;4.72;1.10;;;2.70;99.90;;;;;;5024581;28;20115;-71
2023/02/25 10:25:31;;;;;;;3.90;1.00;;;2.90;99.90;;;;;;5025048;28;20055;-71
2023/02/25 10:28:04;;;;;;;1.98;1.10;;;2.90;99.90;;;;;;5030497;28;20049;-71
2023/02/25 10:30:56;;;;;;;2.80;1.45;;;3.00;99.90;;;;;;5008691;28;20431;-70
2023/02/25 10:33:23;;;;;;;2.75;1.15;;;3.20;99.90;;;;;;5023764;28;20053;-71
2023/02/25 10:36:15;;;;;;;2.20;0.98;;;3.50;99.90;;;;;;5026850;28;20041;-71
2023/02/25 10:38:46;;;;;;;3.75;1.00;;;3.70;99.90;;;;;;4997598;28;20053;-71
2023/02/25 10:41:12;;;;;;;2.22;1.20;;;3.70;99.90;;;;;;5024198;28;20052;-71
2023/02/25 10:43:37;;;;;;;7.32;1.92;;;3.50;99.90;;;;;;5023402;28;20045;-71
2023/02/25 10:46:14;;;;;;;4.15;1.15;;;3.50;99.90;;;;;;4999799;28;20050;-71
2023/02/25 10:48:41;;;;;;;3.30;1.38;;;3.60;99.90;;;;;;4988740;28;20050;-71
2023/02/25 10:51:11;;;;;;;2.33;1.05;;;3.80;99.90;;;;;;5006333;28;20052;-71
2023/02/25 10:53:38;;;;;;;3.70;1.25;;;3.90;99.90;;;;;;4997380;28;20046;-71
2023/02/25 10:56:03;;;;;;;1.83;0.73;;;3.60;99.90;;;;;;5006567;28;20054;-71
2023/02/25 10:58:30;;;;;;;2.08;0.80;;;3.60;99.90;;;;;;5023361;28;20045;-71
2023/02/25 11:01:04;;;;;;;3.35;0.85;;;3.50;99.90;;;;;;5018884;28;20071;-71
2023/02/25 11:03:31;;;;;;;2.55;0.80;;;3.50;99.90;;;;;;4994135;28;20482;-72
2023/02/25 11:06:21;;;;;;;1.27;0.88;;;3.50;99.90;;;;;;5006070;28;20426;-70
2023/02/25 11:08:47;;;;;;;5.70;1.00;;;3.60;99.90;;;;;;5040713;28;20121;-71
2023/02/25 11:11:22;;;;;;;3.50;1.20;;;3.70;99.90;;;;;;5019771;28;20444;-70
2023/02/25 11:14:07;;;;;;;2.28;0.90;;;3.60;99.90;;;;;;5027824;28;20150;-71
2023/02/25 11:16:35;;;;;;;3.70;0.90;;;3.80;99.90;;;;;;5018441;28;20049;-71
2023/02/25 11:19:13;;;;;;;5.25;1.20;;;3.90;99.90;;;;;;5005046;28;20052;-71
2023/02/25 11:21:39;;;;;;;4.47;1.67;;;3.80;99.90;;;;;;5018136;28;20120;-70
2023/02/25 11:24:13;;;;;;;4.57;1.15;;;3.50;99.90;;;;;;5028981;28;20124;-72
2023/02/25 11:26:42;;;;;;;3.85;1.27;;;3.20;99.90;;;;;;5011520;28;20203;-72
2023/02/25 11:29:27;;;;;;;5.72;1.98;;;3.10;99.90;;;;;;5011185;28;20056;-72
2023/02/25 11:31:58;;;;;;;4.18;1.50;;;3.00;99.90;;;;;;5040911;28;20060;-72
2023/02/25 11:34:29;;;;;;;1.83;1.02;;;3.00;99.90;;;;;;4997814;28;20228;-72
2023/02/25 11:36:58;;;;;;;5.43;1.17;;;3.00;99.90;;;;;;5005727;28;20049;-72
2023/02/25 11:39:30;;;;;;;3.97;0.90;;;3.50;99.90;;;;;;5024297;28;20046;-72
2023/02/25 11:41:57;;;;;;;2.80;0.95;;;3.70;99.90;;;;;;5022855;28;20049;-72
2023/02/25 11:44:30;;;;;;;3.50;0.80;;;3.70;99.90;;;;;;5027273;28;20041;-72
2023/02/25 11:47:05;;;;;;;2.28;0.90;;;3.50;99.90;;;;;;5021558;28;20502;-72
2023/02/25 11:49:37;;;;;;;1.65;0.90;;;3.30;99.90;;;;;;5023229;28;20049;-72
2023/02/25 11:52:15;;;;;;;2.95;0.85;;;3.20;99.90;;;;;;5026387;28;20046;-72
2023/02/25 11:55:12;;;;;;;3.97;1.27;;;3.20;99.90;;;;;;5018170;28;20053;-72
2023/02/25 11:58:02;;;;;;;2.72;1.00;;;3.30;99.90;;;;;;5021509;28;20052;-72
2023/02/25 12:00:34;;;;;;;2.88;1.10;;;3.40;99.90;;;;;;4999611;28;20109;-71
2023/02/25 12:03:25;;;;;;;3.05;1.20;;;3.30;99.90;;;;;;5027311;28;20041;-71
2023/02/25 12:06:06;;;;;;;3.20;1.20;;;3.20;99.90;;;;;;4999302;28;20046;-71
2023/02/25 12:08:35;;;;;;;3.17;1.10;;;3.20;99.90;;;;;;5023198;28;20060;-71
2023/02/25 12:11:12;;;;;;;3.22;1.52;;;3.30;99.90;;;;;;5028376;28;20589;-71
2023/02/25 12:13:59;;;;;;;1.40;1.00;;;3.10;99.90;;;;;;5020783;28;20038;-71
2023/02/25 12:17:10;;;;;;;5.50;1.60;;;3.20;99.90;;;;;;5021135;28;20202;-70
2023/02/25 12:19:47;;;;;;;3.67;1.45;;;3.30;99.90;;;;;;4993693;28;20046;-71
2023/02/25 12:22:38;;;;;;;5.10;1.35;;;3.40;99.90;;;;;;5020716;28;20041;-71
2023/02/25 12:25:04;;;;;;;3.53;1.58;;;3.50;99.90;;;;;;5027260;28;20748;-71
2023/02/25 12:27:46;;;;;;;2.95;1.10;;;3.50;99.90;;;;;;5021529;28;20470;-71
2023/02/25 12:30:35;;;;;;;9.10;2.08;;;3.40;99.90;;;;;;5024481;28;20390;-71
2023/02/25 12:33:18;;;;;;;2.60;1.10;;;3.40;99.90;;;;;;5009122;28;20762;-71
2023/02/25 12:36:08;;;;;;;3.03;1.33;;;3.40;99.90;;;;;;5016692;28;20489;-71
2023/02/25 12:38:49;;;;;;;2.85;1.38;;;3.40;99.90;;;;;;5005943;28;20053;-71
2023/02/25 12:41:24;;;;;;;4.78;1.10;;;3.20;99.90;;;;;;5048016;28;20145;-71
2023/02/25 12:43:59;;;;;;;7.05;1.40;;;3.30;99.90;;;;;;5025531;28;20045;-71
2023/02/25 12:46:55;;;;;;;2.15;1.10;;;3.30;99.90;;;;;;4998889;28;20092;-71
2023/02/25 12:49:50;;;;;;;5.00;1.88;;;3.00;99.90;;;;;;5026228;28;20049;-71
2023/02/25 12:52:36;;;;;;;4.38;1.90;;;2.80;99.90;;;;;;5007291;28;20042;-71
2023/02/25 12:55:01;;;;;;;7.15;1.77;;;2.60;99.90;;;;;;5027679;28;20045;-71
2023/02/25 12:57:30;;;;;;;4.18;1.45;;;2.50;99.90;;;;;;5026612;28;20057;-71
2023/02/25 13:00:04;;;;;;;4.38;1.30;;;2.50;99.90;;;;;;5014692;28;20482;-71
2023/02/25 13:02:48;;;;;;;3.80;1.60;;;2.50;99.90;;;;;;5010022;28;20053;-71
2023/02/25 13:05:35;;;;;;;5.32;1.10;;;2.60;99.90;;;;;;5036262;28;20046;-71
2023/02/25 13:08:19;;;;;;;5.03;1.52;;;2.80;99.90;;;;;;5021284;28;20362;-71
2023/02/25 13:10:58;;;;;;;5.28;1.15;;;3.20;99.90;;;;;;5028277;28;20492;-71
2023/02/25 13:13:45;;;;;;;5.78;1.50;;;3.30;99.90;;;;;;5044230;28;20132;-71